sensor_id;sensor_type;location;lat;lon;timestamp;pressure;altitude;pressure_sealevel;temperature;humidity
70370;BME280;57790;51.356;-2.906;2023-12-14T00:02:37;102032.50;;;6.94;100.00
70370;BME280;57790;51.356;-2.906;2023-12-14T00:05:38;102030.41;;;6.86;100.00
70370;BME280;57790;51.356;-2.906;2023-12-14T00:08:38;102041.47;;;6.92;100.00
70370;BME280;57790;51.356;-2.906;2023-12-14T00:11:39;102042.44;;;6.91;100.00
70370;BME280;57790;51.356;-2.906;2023-12-14T00:14:39;102054.66;;;6.92;100.00
70370;BME280;57790;51.356;-2.906;2023-12-14T00:17:40;102051.94;;;6.80;100.00
70370;BME280;57790;51.356;-2.906;2023-12-14T00:20:40;102051.94;;;6.80;100.00
70370;BME280;57790;51.356;-2.906;2023-12-14T00:23:40;102054.56;;;6.80;100.00
70370;BME280;57790;51.356;-2.906;2023-12-14T00:26:41;102046.13;;;6.75;100.00
70370;BME280;57790;51.356;-2.906;2023-12-14T00:29:41;102041.69;;;6.76;100.00
70370;BME280;57790;51.356;-2.906;2023-12-14T00:32:41;102052.84;;;6.79;100.00
70370;BME280;57790;51.356;-2.906;2023-12-14T00:35:42;102048.75;;;6.75;100.00
70370;BME280;57790;51.356;-2.906;2023-12-14T00:38:42;102054.03;;;6.75;100.00
70370;BME280;57790;51.356;-2.906;2023-12-14T00:41:42;102056.03;;;6.72;100.00
70370;BME280;57790;51.356;-2.906;2023-12-14T00:44:43;102057.19;;;6.68;100.00
70370;BME280;57790;51.356;-2.906;2023-12-14T00:47:43;102056.53;;;6.64;100.00
70370;BME280;57790;51.356;-2.906;2023-12-14T00:50:44;102053.38;;;6.59;100.00
70370;BME280;57790;51.356;-2.906;2023-12-14T00:53:44;102061.19;;;6.61;100.00
70370;BME280;57790;51.356;-2.906;2023-12-14T00:56:44;102061.50;;;6.56;100.00
70370;BME280;57790;51.356;-2.906;2023-12-14T00:59:45;102057.81;;;6.59;100.00
70370;BME280;57790;51.356;-2.906;2023-12-14T01:02:45;102062.47;;;6.55;100.00
70370;BME280;57790;51.356;-2.906;2023-12-14T01:05:46;102065.81;;;6.57;100.00
70370;BME280;57790;51.356;-2.906;2023-12-14T01:08:46;102071.31;;;6.54;100.00
70370;BME280;57790;51.356;-2.906;2023-12-14T01:11:48;102065.50;;;6.49;100.00
70370;BME280;57790;51.356;-2.906;2023-12-14T01:14:48;102057.78;;;6.46;100.00
70370;BME280;57790;51.356;-2.906;2023-12-14T01:17:49;102052.53;;;6.46;100.00
70370;BME280;57790;51.356;-2.906;2023-12-14T01:20:49;102053.38;;;6.46;100.00
70370;BME280;57790;51.356;-2.906;2023-12-14T01:23:49;102064.00;;;6.45;100.00
70370;BME280;57790;51.356;-2.906;2023-12-14T01:26:50;102060.44;;;6.46;100.00
70370;BME280;57790;51.356;-2.906;2023-12-14T01:29:50;102066.53;;;6.46;100.00
70370;BME280;57790;51.356;-2.906;2023-12-14T01:32:50;102075.19;;;6.48;100.00
70370;BME280;57790;51.356;-2.906;2023-12-14T01:35:51;102072.88;;;6.44;100.00
70370;BME280;57790;51.356;-2.906;2023-12-14T01:38:51;102064.22;;;6.42;100.00
70370;BME280;57790;51.356;-2.906;2023-12-14T01:41:52;102055.81;;;6.37;100.00
70370;BME280;57790;51.356;-2.906;2023-12-14T01:44:52;102055.81;;;6.37;100.00
70370;BME280;57790;51.356;-2.906;2023-12-14T01:47:52;102057.38;;;6.39;100.00
70370;BME280;57790;51.356;-2.906;2023-12-14T01:50:53;102054.09;;;6.36;100.00
70370;BME280;57790;51.356;-2.906;2023-12-14T01:53:53;102050.09;;;6.30;100.00
70370;BME280;57790;51.356;-2.906;2023-12-14T01:56:54;102051.97;;;6.28;100.00
70370;BME280;57790;51.356;-2.906;2023-12-14T01:59:55;102049.34;;;6.28;100.00
70370;BME280;57790;51.356;-2.906;2023-12-14T02:02:55;102048.19;;;6.32;100.00
70370;BME280;57790;51.356;-2.906;2023-12-14T02:05:55;102042.50;;;6.25;100.00
70370;BME280;57790;51.356;-2.906;2023-12-14T02:08:58;102043.34;;;6.26;100.00
70370;BME280;57790;51.356;-2.906;2023-12-14T02:11:58;102049.44;;;6.26;100.00
70370;BME280;57790;51.356;-2.906;2023-12-14T02:14:59;102051.44;;;6.23;100.00
70370;BME280;57790;51.356;-2.906;2023-12-14T02:17:59;102057.34;;;6.26;100.00
70370;BME280;57790;51.356;-2.906;2023-12-14T02:21:00;102055.00;;;6.22;100.00
70370;BME280;57790;51.356;-2.906;2023-12-14T02:24:00;102065.47;;;6.23;100.00
70370;BME280;57790;51.356;-2.906;2023-12-14T02:27:01;102083.69;;;6.26;100.00
70370;BME280;57790;51.356;-2.906;2023-12-14T02:30:01;102088.94;;;6.26;100.00
70370;BME280;57790;51.356;-2.906;2023-12-14T02:33:01;102095.38;;;6.22;100.00
70370;BME280;57790;51.356;-2.906;2023-12-14T02:36:02;102096.84;;;6.26;100.00
70370;BME280;57790;51.356;-2.906;2023-12-14T02:39:03;102112.34;;;6.31;100.00
70370;BME280;57790;51.356;-2.906;2023-12-14T02:42:04;102116.66;;;6.32;100.00
70370;BME280;57790;51.356;-2.906;2023-12-14T02:45:06;102108.00;;;6.30;100.00
70370;BME280;57790;51.356;-2.906;2023-12-14T02:48:07;102098.31;;;6.31;100.00
70370;BME280;57790;51.356;-2.906;2023-12-14T02:51:11;102107.69;;;6.35;100.00
70370;BME280;57790;51.356;-2.906;2023-12-14T02:54:12;102102.44;;;6.35;100.00
70370;BME280;57790;51.356;-2.906;2023-12-14T02:57:12;102098.22;;;6.32;100.00
70370;BME280;57790;51.356;-2.906;2023-12-14T03:00:12;102106.84;;;6.34;100.00
70370;BME280;57790;51.356;-2.906;2023-12-14T03:03:13;102109.50;;;6.34;100.00
70370;BME280;57790;51.356;-2.906;2023-12-14T03:06:13;102119.00;;;6.37;100.00
70370;BME280;57790;51.356;-2.906;2023-12-14T03:09:14;102108.75;;;6.32;100.00
70370;BME280;57790;51.356;-2.906;2023-12-14T03:12:14;102112.88;;;6.36;100.00
70370;BME280;57790;51.356;-2.906;2023-12-14T03:15:17;102110.22;;;6.36;100.00
70370;BME280;57790;51.356;-2.906;2023-12-14T03:18:18;102103.09;;;6.38;100.00
70370;BME280;57790;51.356;-2.906;2023-12-14T03:21:19;102098.69;;;6.39;100.00
70370;BME280;57790;51.356;-2.906;2023-12-14T03:24:20;102088.13;;;6.39;100.00
70370;BME280;57790;51.356;-2.906;2023-12-14T03:27:20;102082.78;;;6.40;100.00
70370;BME280;57790;51.356;-2.906;2023-12-14T03:30:22;102086.25;;;6.41;100.00
70370;BME280;57790;51.356;-2.906;2023-12-14T03:33:23;102083.63;;;6.41;100.00
70370;BME280;57790;51.356;-2.906;2023-12-14T03:36:23;102074.75;;;6.42;100.00
70370;BME280;57790;51.356;-2.906;2023-12-14T03:39:26;102065.91;;;6.43;100.00
70370;BME280;57790;51.356;-2.906;2023-12-14T03:42:27;102074.75;;;6.42;100.00
70370;BME280;57790;51.356;-2.906;2023-12-14T03:45:28;102071.06;;;6.44;100.00
70370;BME280;57790;51.356;-2.906;2023-12-14T03:48:28;102074.66;;;6.43;100.00
70370;BME280;57790;51.356;-2.906;2023-12-14T03:51:28;102070.13;;;6.45;100.00
70370;BME280;57790;51.356;-2.906;2023-12-14T03:54:29;102069.06;;;6.48;100.00
70370;BME280;57790;51.356;-2.906;2023-12-14T03:57:29;102076.22;;;6.46;100.00
70370;BME280;57790;51.356;-2.906;2023-12-14T04:00:30;102065.38;;;6.50;100.00
70370;BME280;57790;51.356;-2.906;2023-12-14T04:03:30;102075.41;;;6.45;100.00
70370;BME280;57790;51.356;-2.906;2023-12-14T04:06:30;102077.06;;;6.46;100.00
70370;BME280;57790;51.356;-2.906;2023-12-14T04:09:31;102078.66;;;6.49;100.00
70370;BME280;57790;51.356;-2.906;2023-12-14T04:12:31;102076.69;;;6.52;100.00
70370;BME280;57790;51.356;-2.906;2023-12-14T04:15:31;102076.69;;;6.52;100.00
70370;BME280;57790;51.356;-2.906;2023-12-14T04:18:32;102079.44;;;6.51;100.00
70370;BME280;57790;51.356;-2.906;2023-12-14T04:21:32;102070.56;;;6.52;100.00
70370;BME280;57790;51.356;-2.906;2023-12-14T04:24:33;102068.69;;;6.54;100.00
70370;BME280;57790;51.356;-2.906;2023-12-14T04:27:34;102054.56;;;6.55;100.00
70370;BME280;57790;51.356;-2.906;2023-12-14T04:30:34;102061.50;;;6.56;100.00
70370;BME280;57790;51.356;-2.906;2023-12-14T04:33:34;102067.63;;;6.56;100.00
70370;BME280;57790;51.356;-2.906;2023-12-14T04:36:35;102074.47;;;6.59;100.00
70370;BME280;57790;51.356;-2.906;2023-12-14T04:39:35;102077.84;;;6.61;100.00
70370;BME280;57790;51.356;-2.906;2023-12-14T04:42:36;102073.63;;;6.59;100.00
70370;BME280;57790;51.356;-2.906;2023-12-14T04:45:36;102071.84;;;6.59;100.00
70370;BME280;57790;51.356;-2.906;2023-12-14T04:48:36;102055.81;;;6.62;100.00
70370;BME280;57790;51.356;-2.906;2023-12-14T04:51:37;102060.03;;;6.65;100.00
70370;BME280;57790;51.356;-2.906;2023-12-14T04:54:37;102056.47;;;6.66;100.00
70370;BME280;57790;51.356;-2.906;2023-12-14T04:57:40;102069.31;;;6.70;100.00
70370;BME280;57790;51.356;-2.906;2023-12-14T05:00:41;102063.84;;;6.73;100.00
70370;BME280;57790;51.356;-2.906;2023-12-14T05:03:41;102057.72;;;6.73;100.00
70370;BME280;57790;51.356;-2.906;2023-12-14T05:06:41;102067.19;;;6.75;100.00
70370;BME280;57790;51.356;-2.906;2023-12-14T05:09:42;102072.78;;;6.71;100.00
70370;BME280;57790;51.356;-2.906;2023-12-14T05:12:42;102065.50;;;6.74;100.00
70370;BME280;57790;51.356;-2.906;2023-12-14T05:15:43;102062.16;;;6.72;100.00
70370;BME280;57790;51.356;-2.906;2023-12-14T05:18:43;102065.63;;;6.73;100.00
70370;BME280;57790;51.356;-2.906;2023-12-14T05:21:43;102068.69;;;6.67;100.00
70370;BME280;57790;51.356;-2.906;2023-12-14T05:24:46;102072.06;;;6.69;100.00
70370;BME280;57790;51.356;-2.906;2023-12-14T05:27:47;102077.97;;;6.72;100.00
70370;BME280;57790;51.356;-2.906;2023-12-14T05:30:47;102083.84;;;6.76;100.00
70370;BME280;57790;51.356;-2.906;2023-12-14T05:33:47;102072.78;;;6.71;100.00
70370;BME280;57790;51.356;-2.906;2023-12-14T05:36:48;102068.38;;;6.71;100.00
70370;BME280;57790;51.356;-2.906;2023-12-14T05:39:48;102068.88;;;6.76;100.00
70370;BME280;57790;51.356;-2.906;2023-12-14T05:42:49;102066.47;;;6.73;100.00
70370;BME280;57790;51.356;-2.906;2023-12-14T05:45:49;102066.78;;;6.69;100.00
70370;BME280;57790;51.356;-2.906;2023-12-14T05:48:50;102064.88;;;6.71;100.00
70370;BME280;57790;51.356;-2.906;2023-12-14T05:51:50;102074.06;;;6.78;100.00
70370;BME280;57790;51.356;-2.906;2023-12-14T05:54:51;102075.66;;;6.80;100.00
70370;BME280;57790;51.356;-2.906;2023-12-14T05:57:51;102087.78;;;6.83;100.00
70370;BME280;57790;51.356;-2.906;2023-12-14T06:00:51;102096.94;;;6.77;100.00
70370;BME280;57790;51.356;-2.906;2023-12-14T06:03:53;102095.13;;;6.78;100.00
70370;BME280;57790;51.356;-2.906;2023-12-14T06:06:53;102088.28;;;6.75;100.00
70370;BME280;57790;51.356;-2.906;2023-12-14T06:09:54;102085.34;;;6.80;100.00
70370;BME280;57790;51.356;-2.906;2023-12-14T06:12:54;102087.66;;;6.84;100.00
70370;BME280;57790;51.356;-2.906;2023-12-14T06:15:54;102086.19;;;6.80;100.00
70370;BME280;57790;51.356;-2.906;2023-12-14T06:18:55;102095.56;;;6.84;100.00
70370;BME280;57790;51.356;-2.906;2023-12-14T06:21:56;102096.53;;;6.83;100.00
70370;BME280;57790;51.356;-2.906;2023-12-14T06:24:56;102090.63;;;6.80;100.00
70370;BME280;57790;51.356;-2.906;2023-12-14T06:27:56;102095.44;;;6.73;100.00
70370;BME280;57790;51.356;-2.906;2023-12-14T06:30:57;102103.34;;;6.73;100.00
70370;BME280;57790;51.356;-2.906;2023-12-14T06:33:57;102104.84;;;6.77;100.00
70370;BME280;57790;51.356;-2.906;2023-12-14T06:37:00;102102.94;;;6.79;100.00
70370;BME280;57790;51.356;-2.906;2023-12-14T06:40:03;102105.16;;;6.73;100.00
70370;BME280;57790;51.356;-2.906;2023-12-14T06:43:06;102109.38;;;6.75;100.00
70370;BME280;57790;51.356;-2.906;2023-12-14T06:46:07;102114.25;;;6.81;100.00
70370;BME280;57790;51.356;-2.906;2023-12-14T06:49:08;102109.38;;;6.75;100.00
70370;BME280;57790;51.356;-2.906;2023-12-14T06:52:08;102122.16;;;6.81;100.00
70370;BME280;57790;51.356;-2.906;2023-12-14T06:55:09;102121.19;;;6.82;100.00
70370;BME280;57790;51.356;-2.906;2023-12-14T06:58:11;102130.16;;;6.80;100.00
70370;BME280;57790;51.356;-2.906;2023-12-14T07:01:16;102137.13;;;6.81;100.00
70370;BME280;57790;51.356;-2.906;2023-12-14T07:04:17;102125.91;;;6.77;100.00
70370;BME280;57790;51.356;-2.906;2023-12-14T07:07:19;102114.13;;;6.83;100.00
70370;BME280;57790;51.356;-2.906;2023-12-14T07:10:19;102117.50;;;6.72;100.00
70370;BME280;57790;51.356;-2.906;2023-12-14T07:13:20;102123.00;;;6.82;100.00
70370;BME280;57790;51.356;-2.906;2023-12-14T07:16:21;102131.63;;;6.84;100.00
70370;BME280;57790;51.356;-2.906;2023-12-14T07:19:21;102129.41;;;6.91;100.00
70370;BME280;57790;51.356;-2.906;2023-12-14T07:22:22;102130.91;;;6.95;100.00
70370;BME280;57790;51.356;-2.906;2023-12-14T07:25:22;102131.09;;;6.92;100.00
70370;BME280;57790;51.356;-2.906;2023-12-14T07:28:22;102132.38;;;6.86;100.00
70370;BME280;57790;51.356;-2.906;2023-12-14T07:31:23;102145.00;;;6.94;100.00
70370;BME280;57790;51.356;-2.906;2023-12-14T07:34:23;102145.00;;;6.94;100.00
70370;BME280;57790;51.356;-2.906;2023-12-14T07:37:25;102144.81;;;6.97;100.00
70370;BME280;57790;51.356;-2.906;2023-12-14T07:40:25;102137.66;;;6.99;100.00
70370;BME280;57790;51.356;-2.906;2023-12-14T07:43:26;102133.00;;;7.02;100.00
70370;BME280;57790;51.356;-2.906;2023-12-14T07:46:26;102134.91;;;7.00;100.00
70370;BME280;57790;51.356;-2.906;2023-12-14T07:49:26;102137.22;;;7.05;100.00
70370;BME280;57790;51.356;-2.906;2023-12-14T07:52:27;102136.19;;;6.95;100.00
70370;BME280;57790;51.356;-2.906;2023-12-14T07:55:28;102146.72;;;7.07;100.00
70370;BME280;57790;51.356;-2.906;2023-12-14T07:58:29;102137.44;;;7.02;100.00
70370;BME280;57790;51.356;-2.906;2023-12-14T08:01:29;102143.78;;;7.12;100.00
70370;BME280;57790;51.356;-2.906;2023-12-14T08:04:29;102145.34;;;7.14;100.00
70370;BME280;57790;51.356;-2.906;2023-12-14T08:07:31;102153.28;;;7.14;100.00
70370;BME280;57790;51.356;-2.906;2023-12-14T08:10:32;102153.47;;;7.11;100.00
70370;BME280;57790;51.356;-2.906;2023-12-14T08:13:32;102149.28;;;7.09;100.00
70370;BME280;57790;51.356;-2.906;2023-12-14T08:16:32;102146.72;;;7.20;100.00
70370;BME280;57790;51.356;-2.906;2023-12-14T08:19:33;102146.81;;;7.19;100.00
70370;BME280;57790;51.356;-2.906;2023-12-14T08:22:34;102142.72;;;7.14;100.00
70370;BME280;57790;51.356;-2.906;2023-12-14T08:25:34;102133.44;;;7.09;100.00
70370;BME280;57790;51.356;-2.906;2023-12-14T08:28:34;102128.16;;;7.22;100.00
70370;BME280;57790;51.356;-2.906;2023-12-14T08:31:35;102135.03;;;7.24;100.00
70370;BME280;57790;51.356;-2.906;2023-12-14T08:34:35;102137.13;;;7.32;100.00
70370;BME280;57790;51.356;-2.906;2023-12-14T08:37:36;102133.63;;;7.31;100.00
70370;BME280;57790;51.356;-2.906;2023-12-14T08:40:38;102145.53;;;7.37;100.00
70370;BME280;57790;51.356;-2.906;2023-12-14T08:43:39;102134.81;;;7.27;100.00
70370;BME280;57790;51.356;-2.906;2023-12-14T08:46:44;102137.66;;;7.24;100.00
70370;BME280;57790;51.356;-2.906;2023-12-14T08:49:45;102133.41;;;7.34;100.00
70370;BME280;57790;51.356;-2.906;2023-12-14T08:52:45;102141.09;;;7.37;100.00
70370;BME280;57790;51.356;-2.906;2023-12-14T08:55:46;102137.31;;;7.41;100.00
70370;BME280;57790;51.356;-2.906;2023-12-14T08:58:46;102137.94;;;7.45;100.00
70370;BME280;57790;51.356;-2.906;2023-12-14T09:01:46;102143.13;;;7.34;100.00
70370;BME280;57790;51.356;-2.906;2023-12-14T09:04:47;102149.34;;;7.33;100.00
70370;BME280;57790;51.356;-2.906;2023-12-14T09:07:47;102147.34;;;7.36;100.00
70370;BME280;57790;51.356;-2.906;2023-12-14T09:10:48;102130.66;;;7.36;100.00
70370;BME280;57790;51.356;-2.906;2023-12-14T09:13:48;102144.41;;;7.41;100.00
70370;BME280;57790;51.356;-2.906;2023-12-14T09:16:48;102131.09;;;7.42;100.00
70370;BME280;57790;51.356;-2.906;2023-12-14T09:19:49;102139.00;;;7.55;100.00
70370;BME280;57790;51.356;-2.906;2023-12-14T09:22:49;102146.06;;;7.55;100.00
70370;BME280;57790;51.356;-2.906;2023-12-14T09:25:50;102138.88;;;7.57;100.00
70370;BME280;57790;51.356;-2.906;2023-12-14T09:28:51;102138.03;;;7.56;100.00
70370;BME280;57790;51.356;-2.906;2023-12-14T09:31:51;102149.22;;;7.60;100.00
70370;BME280;57790;51.356;-2.906;2023-12-14T09:34:51;102156.91;;;7.63;100.00
70370;BME280;57790;51.356;-2.906;2023-12-14T09:37:52;102166.00;;;7.59;100.00
70370;BME280;57790;51.356;-2.906;2023-12-14T09:40:53;102174.75;;;7.59;100.00
70370;BME280;57790;51.356;-2.906;2023-12-14T09:43:54;102184.47;;;7.59;100.00
70370;BME280;57790;51.356;-2.906;2023-12-14T09:46:55;102176.56;;;7.59;100.00
70370;BME280;57790;51.356;-2.906;2023-12-14T09:49:58;102180.16;;;7.58;100.00
70370;BME280;57790;51.356;-2.906;2023-12-14T09:52:59;102182.66;;;7.72;100.00
70370;BME280;57790;51.356;-2.906;2023-12-14T09:55:59;102196.28;;;7.66;100.00
70370;BME280;57790;51.356;-2.906;2023-12-14T09:59:01;102193.97;;;7.74;100.00
70370;BME280;57790;51.356;-2.906;2023-12-14T10:02:09;102193.97;;;7.74;100.00
70370;BME280;57790;51.356;-2.906;2023-12-14T10:05:11;102193.72;;;7.77;100.00
70370;BME280;57790;51.356;-2.906;2023-12-14T10:08:11;102192.16;;;7.74;100.00
70370;BME280;57790;51.356;-2.906;2023-12-14T10:11:15;102211.59;;;7.73;100.00
70370;BME280;57790;51.356;-2.906;2023-12-14T10:14:21;102215.69;;;7.78;100.00
70370;BME280;57790;51.356;-2.906;2023-12-14T10:17:21;102228.16;;;7.75;100.00
70370;BME280;57790;51.356;-2.906;2023-12-14T10:20:24;102233.09;;;7.80;100.00
70370;BME280;57790;51.356;-2.906;2023-12-14T10:23:27;102237.25;;;7.84;100.00
70370;BME280;57790;51.356;-2.906;2023-12-14T10:26:28;102238.19;;;7.83;100.00
70370;BME280;57790;51.356;-2.906;2023-12-14T10:29:28;102246.84;;;7.85;100.00
70370;BME280;57790;51.356;-2.906;2023-12-14T10:32:29;102246.97;;;7.84;100.00
70370;BME280;57790;51.356;-2.906;2023-12-14T10:35:29;102252.88;;;7.87;100.00
70370;BME280;57790;51.356;-2.906;2023-12-14T10:38:31;102259.22;;;7.85;100.00
70370;BME280;57790;51.356;-2.906;2023-12-14T10:41:33;102265.56;;;7.82;100.00
70370;BME280;57790;51.356;-2.906;2023-12-14T10:44:36;102263.44;;;7.87;100.00
70370;BME280;57790;51.356;-2.906;2023-12-14T10:47:39;102266.81;;;7.89;100.00
70370;BME280;57790;51.356;-2.906;2023-12-14T10:50:43;102264.88;;;7.91;100.00
70370;BME280;57790;51.356;-2.906;2023-12-14T10:53:45;102265.72;;;7.92;100.00
70370;BME280;57790;51.356;-2.906;2023-12-14T10:56:49;102268.25;;;7.93;100.00
70370;BME280;57790;51.356;-2.906;2023-12-14T10:59:49;102269.75;;;7.97;100.00
70370;BME280;57790;51.356;-2.906;2023-12-14T11:02:50;102262.78;;;7.96;100.00
70370;BME280;57790;51.356;-2.906;2023-12-14T11:05:53;102272.41;;;7.97;100.00
70370;BME280;57790;51.356;-2.906;2023-12-14T11:08:56;102280.94;;;8.01;100.00
70370;BME280;57790;51.356;-2.906;2023-12-14T11:11:57;102276.50;;;8.01;100.00
70370;BME280;57790;51.356;-2.906;2023-12-14T11:14:59;102277.47;;;8.00;100.00
70370;BME280;57790;51.356;-2.906;2023-12-14T11:21:18;102280.63;;;8.05;100.00
70370;BME280;57790;51.356;-2.906;2023-12-14T11:24:20;102290.00;;;8.10;100.00
70370;BME280;57790;51.356;-2.906;2023-12-14T11:27:26;102286.50;;;8.09;100.00
70370;BME280;57790;51.356;-2.906;2023-12-14T11:30:27;102295.94;;;8.13;100.00
70370;BME280;57790;51.356;-2.906;2023-12-14T11:33:28;102291.38;;;8.15;100.00
70370;BME280;57790;51.356;-2.906;2023-12-14T11:36:29;102285.03;;;8.18;100.00
70370;BME280;57790;51.356;-2.906;2023-12-14T11:39:30;102289.13;;;8.22;100.00
70370;BME280;57790;51.356;-2.906;2023-12-14T11:42:31;102291.59;;;8.25;100.00
70370;BME280;57790;51.356;-2.906;2023-12-14T11:45:32;102295.16;;;8.24;100.00
70370;BME280;57790;51.356;-2.906;2023-12-14T11:48:32;102283.44;;;8.28;100.00
70370;BME280;57790;51.356;-2.906;2023-12-14T11:51:33;102289.56;;;8.28;100.00
70370;BME280;57790;51.356;-2.906;2023-12-14T11:54:33;102291.25;;;8.29;100.00
70370;BME280;57790;51.356;-2.906;2023-12-14T11:57:34;102293.06;;;8.29;100.00
70370;BME280;57790;51.356;-2.906;2023-12-14T12:00:34;102291.88;;;8.33;100.00
70370;BME280;57790;51.356;-2.906;2023-12-14T12:03:40;102308.47;;;8.35;100.00
70370;BME280;57790;51.356;-2.906;2023-12-14T12:06:40;102311.56;;;8.42;100.00
70370;BME280;57790;51.356;-2.906;2023-12-14T12:09:42;102309.03;;;8.40;100.00
70370;BME280;57790;51.356;-2.906;2023-12-14T12:12:43;102307.09;;;8.42;100.00
70370;BME280;57790;51.356;-2.906;2023-12-14T12:15:43;102302.66;;;8.43;100.00
70370;BME280;57790;51.356;-2.906;2023-12-14T12:18:44;102303.28;;;8.46;100.00
70370;BME280;57790;51.356;-2.906;2023-12-14T12:21:44;102310.16;;;8.49;100.00
70370;BME280;57790;51.356;-2.906;2023-12-14T12:24:45;102316.88;;;8.53;100.00
70370;BME280;57790;51.356;-2.906;2023-12-14T12:27:46;102310.03;;;8.50;100.00
70370;BME280;57790;51.356;-2.906;2023-12-14T12:30:47;102314.25;;;8.53;100.00
70370;BME280;57790;51.356;-2.906;2023-12-14T12:33:47;102310.69;;;8.54;100.00
70370;BME280;57790;51.356;-2.906;2023-12-14T12:36:48;102308.97;;;8.53;100.00
70370;BME280;57790;51.356;-2.906;2023-12-14T12:39:48;102307.91;;;8.55;100.00
70370;BME280;57790;51.356;-2.906;2023-12-14T12:42:49;102306.22;;;8.54;100.00
70370;BME280;57790;51.356;-2.906;2023-12-14T12:45:50;102307.16;;;8.53;100.00
70370;BME280;57790;51.356;-2.906;2023-12-14T12:48:50;102307.38;;;8.50;100.00
70370;BME280;57790;51.356;-2.906;2023-12-14T12:51:51;102301.78;;;8.55;100.00
70370;BME280;57790;51.356;-2.906;2023-12-14T12:54:52;102304.44;;;8.55;100.00
70370;BME280;57790;51.356;-2.906;2023-12-14T12:57:52;102301.38;;;8.48;100.00
70370;BME280;57790;51.356;-2.906;2023-12-14T13:00:53;102299.75;;;8.58;100.00
70370;BME280;57790;51.356;-2.906;2023-12-14T13:03:54;102305.16;;;8.57;100.00
70370;BME280;57790;51.356;-2.906;2023-12-14T13:06:55;102311.69;;;8.64;100.00
70370;BME280;57790;51.356;-2.906;2023-12-14T13:09:55;102305.44;;;8.65;100.00
70370;BME280;57790;51.356;-2.906;2023-12-14T13:12:56;102311.25;;;8.70;100.00
70370;BME280;57790;51.356;-2.906;2023-12-14T13:15:56;102322.66;;;8.71;100.00
70370;BME280;57790;51.356;-2.906;2023-12-14T13:18:57;102321.72;;;8.72;100.00
70370;BME280;57790;51.356;-2.906;2023-12-14T13:21:57;102325.19;;;8.72;100.00
70370;BME280;57790;51.356;-2.906;2023-12-14T13:24:59;102325.19;;;8.72;100.00
70370;BME280;57790;51.356;-2.906;2023-12-14T13:28:00;102336.63;;;8.73;100.00
70370;BME280;57790;51.356;-2.906;2023-12-14T13:31:00;102334.47;;;8.78;100.00
70370;BME280;57790;51.356;-2.906;2023-12-14T13:34:01;102331.72;;;8.79;100.00
70370;BME280;57790;51.356;-2.906;2023-12-14T13:37:01;102337.97;;;8.78;100.00
70370;BME280;57790;51.356;-2.906;2023-12-14T13:40:02;102343.13;;;8.80;100.00
70370;BME280;57790;51.356;-2.906;2023-12-14T13:43:04;102350.94;;;8.81;100.00
70370;BME280;57790;51.356;-2.906;2023-12-14T13:46:10;102345.34;;;8.86;100.00
70370;BME280;57790;51.356;-2.906;2023-12-14T13:49:10;102351.06;;;8.80;100.00
70370;BME280;57790;51.356;-2.906;2023-12-14T13:52:11;102356.78;;;8.86;100.00
70370;BME280;57790;51.356;-2.906;2023-12-14T13:55:11;102362.06;;;8.86;100.00
70370;BME280;57790;51.356;-2.906;2023-12-14T13:58:12;102364.97;;;8.94;100.00
70370;BME280;57790;51.356;-2.906;2023-12-14T14:01:13;102368.69;;;8.92;100.00
70370;BME280;57790;51.356;-2.906;2023-12-14T14:04:13;102369.44;;;8.94;100.00
70370;BME280;57790;51.356;-2.906;2023-12-14T14:07:14;102371.66;;;9.00;100.00
70370;BME280;57790;51.356;-2.906;2023-12-14T14:10:14;102378.72;;;9.00;100.00
70370;BME280;57790;51.356;-2.906;2023-12-14T14:13:14;102374.16;;;9.02;100.00
70370;BME280;57790;51.356;-2.906;2023-12-14T14:16:15;102378.50;;;9.03;100.00
70370;BME280;57790;51.356;-2.906;2023-12-14T14:19:15;102384.53;;;9.05;100.00
70370;BME280;57790;51.356;-2.906;2023-12-14T14:22:16;102380.91;;;9.06;100.00
70370;BME280;57790;51.356;-2.906;2023-12-14T14:25:16;102376.47;;;9.06;100.00
70370;BME280;57790;51.356;-2.906;2023-12-14T14:28:17;102372.63;;;9.10;100.00
70370;BME280;57790;51.356;-2.906;2023-12-14T14:31:17;102381.53;;;9.09;100.00
70370;BME280;57790;51.356;-2.906;2023-12-14T14:34:18;102387.66;;;9.10;100.00
70370;BME280;57790;51.356;-2.906;2023-12-14T14:37:18;102383.97;;;9.12;100.00
70370;BME280;57790;51.356;-2.906;2023-12-14T14:40:18;102396.25;;;9.13;100.00
70370;BME280;57790;51.356;-2.906;2023-12-14T14:43:19;102400.34;;;9.17;100.00
70370;BME280;57790;51.356;-2.906;2023-12-14T14:46:19;102410.59;;;9.22;100.00
70370;BME280;57790;51.356;-2.906;2023-12-14T14:49:20;102412.50;;;9.20;100.00
70370;BME280;57790;51.356;-2.906;2023-12-14T14:52:20;102414.81;;;9.24;100.00
70370;BME280;57790;51.356;-2.906;2023-12-14T14:55:20;102424.34;;;9.27;100.00
70370;BME280;57790;51.356;-2.906;2023-12-14T14:58:22;102439.16;;;9.30;100.00
70370;BME280;57790;51.356;-2.906;2023-12-14T15:01:22;102439.66;;;9.35;100.00
70370;BME280;57790;51.356;-2.906;2023-12-14T15:04:23;102441.34;;;9.36;100.00
70370;BME280;57790;51.356;-2.906;2023-12-14T15:07:23;102437.72;;;9.37;100.00
70370;BME280;57790;51.356;-2.906;2023-12-14T15:10:24;102454.88;;;9.44;100.00
70370;BME280;57790;51.356;-2.906;2023-12-14T15:13:24;102454.88;;;9.44;100.00
70370;BME280;57790;51.356;-2.906;2023-12-14T15:16:24;102463.75;;;9.43;100.00
70370;BME280;57790;51.356;-2.906;2023-12-14T15:19:25;102467.03;;;9.46;100.00
70370;BME280;57790;51.356;-2.906;2023-12-14T15:22:26;102473.66;;;9.52;100.00
70370;BME280;57790;51.356;-2.906;2023-12-14T15:25:26;102479.59;;;9.56;100.00
70370;BME280;57790;51.356;-2.906;2023-12-14T15:28:27;102488.47;;;9.54;100.00
70370;BME280;57790;51.356;-2.906;2023-12-14T15:31:27;102488.38;;;9.56;100.00
70370;BME280;57790;51.356;-2.906;2023-12-14T15:34:28;102489.13;;;9.58;100.00
70370;BME280;57790;51.356;-2.906;2023-12-14T15:37:28;102496.09;;;9.59;100.00